createdAt,value
2019-01-22T00:01:02.864Z,-1.70
2019-01-22T00:03:34.918Z,-1.80
2019-01-22T00:06:04.501Z,-1.90
2019-01-22T00:08:36.296Z,-2.10
2019-01-22T00:11:09.577Z,-2.00
2019-01-22T00:13:44.426Z,-2.00
2019-01-22T00:16:14.809Z,-1.90
2019-01-22T00:18:44.321Z,-2.00
2019-01-22T00:21:16.299Z,-1.90
2019-01-22T00:23:46.226Z,-1.90
2019-01-22T00:26:17.850Z,-2.00
2019-01-22T00:28:48.900Z,-1.90
2019-01-22T00:31:19.971Z,-2.00
2019-01-22T00:33:49.404Z,-1.90
2019-01-22T00:36:21.134Z,-2.00
2019-01-22T00:38:50.588Z,-1.90
2019-01-22T00:41:20.386Z,-1.80
2019-01-22T00:43:52.549Z,-1.80
2019-01-22T00:46:21.945Z,-1.80
2019-01-22T00:48:51.368Z,-1.80
2019-01-22T00:51:21.448Z,-1.80
2019-01-22T00:53:51.706Z,-1.80
2019-01-22T00:56:22.112Z,-1.80
2019-01-22T00:58:51.512Z,-1.80
2019-01-22T01:01:21.507Z,-1.80
2019-01-22T01:03:55.402Z,-1.90
2019-01-22T01:06:24.753Z,-1.80
2019-01-22T01:08:54.734Z,-1.80
2019-01-22T01:11:25.601Z,-1.80
2019-01-22T01:13:55.013Z,-1.80
2019-01-22T01:16:30.240Z,-1.80
2019-01-22T01:19:00.521Z,-1.80
2019-01-22T01:21:34.775Z,-1.80
2019-01-22T01:24:04.242Z,-1.80
2019-01-22T01:26:34.527Z,-1.90
2019-01-22T01:29:03.872Z,-1.90
2019-01-22T01:31:33.679Z,-1.90
2019-01-22T01:34:06.447Z,-2.00
2019-01-22T01:36:38.510Z,-2.00
2019-01-22T01:39:08.347Z,-2.00
2019-01-22T01:41:38.268Z,-2.00
2019-01-22T01:44:11.166Z,-2.10
2019-01-22T01:46:40.561Z,-2.10
2019-01-22T01:49:15.828Z,-2.10
2019-01-22T01:51:45.220Z,-2.10
2019-01-22T01:54:16.357Z,-2.20
2019-01-22T01:56:50.358Z,-2.10
2019-01-22T01:59:19.753Z,-2.10
2019-01-22T02:01:49.152Z,-2.10
2019-01-22T02:04:18.586Z,-1.90
2019-01-22T02:06:47.960Z,-1.90
2019-01-22T02:09:18.502Z,-1.90
2019-01-22T02:11:48.318Z,-1.90
2019-01-22T02:14:22.805Z,-1.90
2019-01-22T02:17:16.003Z,-2.00
2019-01-22T02:20:08.286Z,-1.90
2019-01-22T02:23:13.728Z,-2.00
2019-01-22T02:26:07.373Z,-2.00
2019-01-22T02:29:12.919Z,-2.00
2019-01-22T02:32:20.593Z,-2.10
2019-01-22T02:35:22.008Z,-2.00
2019-01-22T02:38:25.564Z,-2.00
2019-01-22T02:41:36.751Z,-2.00
2019-01-22T02:45:08.879Z,-1.90
2019-01-22T02:48:02.733Z,-2.10
2019-01-22T02:51:13.222Z,-2.00
2019-01-22T02:54:30.973Z,-1.90
2019-01-22T02:57:46.933Z,-1.90
2019-01-22T03:01:05.785Z,-1.80
2019-01-22T03:03:50.146Z,-1.80
2019-01-22T03:06:59.992Z,-1.90
2019-01-22T03:09:47.296Z,-1.90
2019-01-22T03:13:19.333Z,-1.90
2019-01-22T03:16:24.448Z,-1.80
2019-01-22T03:19:12.653Z,-1.90
2019-01-22T03:22:50.245Z,-1.80
2019-01-22T03:25:57.872Z,-1.80
2019-01-22T03:29:21.862Z,-1.80
2019-01-22T03:32:07.852Z,-1.80
2019-01-22T03:35:34.110Z,-1.90
2019-01-22T03:38:43.934Z,-1.90
2019-01-22T03:41:59.308Z,-1.80
2019-01-22T03:45:04.866Z,-1.80
2019-01-22T03:47:59.052Z,-1.80
2019-01-22T03:50:48.008Z,-1.90
2019-01-22T03:53:53.530Z,-1.90
2019-01-22T03:57:10.923Z,-1.90
2019-01-22T03:59:41.547Z,-1.90
2019-01-22T04:02:14.334Z,-1.90
2019-01-22T04:04:44.616Z,-2.00
2019-01-22T04:07:15.611Z,-2.10
2019-01-22T04:10:16.593Z,-2.20
2019-01-22T04:12:45.950Z,-2.30
2019-01-22T04:15:19.648Z,-2.30
2019-01-22T04:17:53.736Z,-2.30
2019-01-22T04:20:24.720Z,-2.40
2019-01-22T04:23:05.357Z,-2.50
2019-01-22T04:26:02.636Z,-2.50
2019-01-22T04:28:51.690Z,-2.60
2019-01-22T04:31:40.246Z,-2.60
2019-01-22T04:34:51.464Z,-2.60
2019-01-22T04:38:04.624Z,-2.70
2019-01-22T04:40:54.193Z,-2.70
2019-01-22T04:43:42.654Z,-2.80
2019-01-22T04:46:46.592Z,-2.70
2019-01-22T04:49:37.267Z,-2.70
2019-01-22T04:52:15.649Z,-2.70
2019-01-22T04:55:32.717Z,-2.60
2019-01-22T04:58:40.382Z,-2.60
2019-01-22T05:01:45.517Z,-2.70
2019-01-22T05:05:04.356Z,-2.70
2019-01-22T05:07:46.516Z,-2.70
2019-01-22T05:11:01.076Z,-2.70
2019-01-22T05:13:59.916Z,-2.70
2019-01-22T05:17:15.198Z,-2.80
2019-01-22T05:20:19.507Z,-2.80
2019-01-22T05:23:27.810Z,-2.80
2019-01-22T05:26:49.486Z,-2.70
2019-01-22T05:30:02.429Z,-2.70
2019-01-22T05:33:13.200Z,-2.80
2019-01-22T05:36:09.558Z,-2.80
2019-01-22T05:38:50.553Z,-2.70
2019-01-22T05:41:51.845Z,-2.70
2019-01-22T05:44:47.079Z,-2.70
2019-01-22T05:47:52.258Z,-2.70
2019-01-22T05:50:52.496Z,-2.70
2019-01-22T05:54:00.116Z,-2.60
2019-01-22T05:56:44.680Z,-2.60
2019-01-22T05:59:36.793Z,-2.60
2019-01-22T06:02:28.203Z,-2.70
2019-01-22T06:05:33.750Z,-2.70
2019-01-22T06:08:34.504Z,-2.70
2019-01-22T06:11:57.141Z,-2.80
2019-01-22T06:14:50.521Z,-2.80
2019-01-22T06:17:45.621Z,-2.70
2019-01-22T06:21:21.903Z,-2.80
2019-01-22T06:24:33.691Z,-2.80
2019-01-22T06:27:07.284Z,-2.80
2019-01-22T06:30:09.320Z,-2.80
2019-01-22T06:32:47.952Z,-2.80
2019-01-22T06:35:30.945Z,-2.80
2019-01-22T06:38:27.599Z,-2.80
2019-01-22T06:41:17.685Z,-2.60
2019-01-22T06:44:12.574Z,-2.70
2019-01-22T06:47:07.985Z,-2.70
2019-01-22T06:49:53.165Z,-2.60
2019-01-22T06:53:05.167Z,-2.50
2019-01-22T06:56:25.491Z,-2.50
2019-01-22T06:59:19.537Z,-2.50
2019-01-22T07:02:14.890Z,-2.50
2019-01-22T07:05:14.612Z,-2.50
2019-01-22T07:08:26.211Z,-2.50
2019-01-22T07:11:38.652Z,-2.60
2019-01-22T07:14:52.527Z,-2.70
2019-01-22T07:17:35.427Z,-2.90
2019-01-22T07:20:38.273Z,-2.70
2019-01-22T07:23:27.405Z,-2.60
2019-01-22T07:26:38.119Z,-2.50
2019-01-22T07:29:53.452Z,-2.50
2019-01-22T07:33:08.525Z,-2.40
2019-01-22T07:36:11.872Z,-2.30
2019-01-22T07:39:02.700Z,-2.20
2019-01-22T07:42:10.380Z,-2.30
2019-01-22T07:45:07.032Z,-2.20
2019-01-22T07:48:09.617Z,-2.10
2019-01-22T07:51:09.862Z,-2.20
2019-01-22T07:53:57.972Z,-2.30
2019-01-22T07:57:03.895Z,-2.20
2019-01-22T08:00:09.069Z,-2.30
2019-01-22T08:02:53.231Z,-2.30
2019-01-22T08:06:25.181Z,-2.30
2019-01-22T08:09:27.548Z,-2.30
2019-01-22T08:12:47.089Z,-2.10
2019-01-22T08:15:34.357Z,-2.20
2019-01-22T08:18:58.882Z,-2.20
2019-01-22T08:21:47.972Z,-2.10
2019-01-22T08:24:51.400Z,-2.10
2019-01-22T08:27:36.097Z,-2.10
2019-01-22T08:30:35.685Z,-2.00
2019-01-22T08:33:33.778Z,-2.00
2019-01-22T08:36:46.995Z,-1.90
2019-01-22T08:39:46.371Z,-1.80
2019-01-22T08:43:02.365Z,-1.80
2019-01-22T08:46:24.312Z,-1.70
2019-01-22T08:49:19.012Z,-1.70
2019-01-22T08:52:36.240Z,-1.60
2019-01-22T08:55:42.422Z,-1.60
2019-01-22T08:58:49.082Z,-1.70
2019-01-22T09:01:43.461Z,-1.70
2019-01-22T09:04:49.008Z,-1.70
2019-01-22T09:07:49.444Z,-1.70
2019-01-22T09:10:41.254Z,-1.80
2019-01-22T09:13:39.361Z,-1.90
2019-01-22T09:16:54.916Z,-1.90
2019-01-22T09:19:47.681Z,-1.80
2019-01-22T09:23:08.474Z,-1.70
2019-01-22T09:26:03.889Z,-1.60
2019-01-22T09:29:04.930Z,-2.00
2019-01-22T09:32:07.024Z,-1.90
2019-01-22T09:35:21.140Z,-1.90
2019-01-22T09:37:56.596Z,-1.70
2019-01-22T09:40:27.090Z,-1.60
2019-01-22T09:42:56.672Z,-1.50
2019-01-22T09:45:26.085Z,-1.50
2019-01-22T09:47:55.600Z,-1.40
2019-01-22T09:50:25.877Z,-1.40
2019-01-22T09:52:55.479Z,-1.40
2019-01-22T09:55:25.373Z,-1.40
2019-01-22T09:57:57.411Z,-1.40
2019-01-22T10:00:26.781Z,-1.40
2019-01-22T10:02:56.241Z,-1.40
2019-01-22T10:05:28.642Z,-1.30
2019-01-22T10:07:58.086Z,-1.20
2019-01-22T10:10:31.356Z,-1.20
2019-01-22T10:13:00.736Z,-1.20
2019-01-22T10:15:30.120Z,-1.10
2019-01-22T10:17:59.509Z,-1.20
2019-01-22T10:20:30.577Z,-1.20
2019-01-22T10:22:59.948Z,-1.20
2019-01-22T10:25:33.839Z,-1.30
2019-01-22T10:28:04.640Z,-1.30
2019-01-22T10:30:37.799Z,-1.40
2019-01-22T10:33:07.856Z,-1.30
2019-01-22T10:35:38.130Z,-1.30
2019-01-22T10:38:07.504Z,-1.50
2019-01-22T10:40:36.976Z,-1.40
2019-01-22T10:43:09.357Z,-1.40
2019-01-22T10:45:40.405Z,-1.30
2019-01-22T10:48:10.862Z,-1.20
2019-01-22T10:50:43.433Z,-1.00
2019-01-22T10:53:12.732Z,-0.80
2019-01-22T10:55:42.113Z,-0.60
2019-01-22T10:58:11.664Z,-0.60
2019-01-22T11:00:44.219Z,-0.60
2019-01-22T11:03:13.732Z,-0.60
2019-01-22T11:05:45.849Z,-0.60
2019-01-22T11:08:16.251Z,-0.50
2019-01-22T11:10:46.117Z,-0.40
2019-01-22T11:13:17.833Z,-0.30
2019-01-22T11:15:51.183Z,-0.20
2019-01-22T11:18:23.252Z,-0.20
2019-01-22T11:20:53.325Z,-0.20
2019-01-22T11:23:22.720Z,-0.40
2019-01-22T11:25:52.984Z,-0.30
2019-01-22T11:28:26.406Z,-0.20
2019-01-22T11:30:56.389Z,-0.10
2019-01-22T11:33:26.497Z,-0.20
2019-01-22T11:35:56.882Z,-0.10
2019-01-22T11:38:31.979Z,-0.20
2019-01-22T11:41:02.199Z,-0.20
2019-01-22T11:43:33.522Z,-0.40
2019-01-22T11:46:02.972Z,-0.40
2019-01-22T11:48:34.741Z,-0.30
2019-01-22T11:51:05.110Z,-0.20
2019-01-22T11:53:36.070Z,-0.10
2019-01-22T11:56:07.683Z,0.00
2019-01-22T11:58:37.012Z,0.10
2019-01-22T12:01:06.751Z,0.10
2019-01-22T12:03:37.040Z,0.00
2019-01-22T12:06:10.159Z,0.00
2019-01-22T12:08:42.541Z,0.00
2019-01-22T12:11:12.521Z,0.00
2019-01-22T12:13:46.549Z,0.00
2019-01-22T12:16:19.851Z,-0.10
2019-01-22T12:18:49.481Z,-0.20
2019-01-22T12:21:23.248Z,-0.20
2019-01-22T12:23:52.632Z,-0.10
2019-01-22T12:26:22.730Z,0.00
2019-01-22T12:28:52.097Z,0.10
2019-01-22T12:31:25.794Z,0.10
2019-01-22T12:34:02.012Z,0.10
2019-01-22T12:36:38.639Z,0.20
2019-01-22T12:39:11.358Z,0.20
2019-01-22T12:41:43.165Z,0.10
2019-01-22T12:44:14.607Z,0.10
2019-01-22T12:46:44.047Z,0.10
2019-01-22T12:49:13.436Z,0.20
2019-01-22T12:51:43.649Z,0.20
2019-01-22T12:54:15.594Z,0.30
2019-01-22T12:56:47.865Z,0.10
2019-01-22T12:59:19.007Z,0.10
2019-01-22T13:01:48.983Z,0.10
2019-01-22T13:04:18.326Z,0.10
2019-01-22T13:06:48.241Z,0.10
2019-01-22T13:09:22.050Z,-0.20
2019-01-22T13:11:51.904Z,-0.30
2019-01-22T13:14:21.340Z,-0.10
2019-01-22T13:16:51.056Z,0.00
2019-01-22T13:19:20.578Z,0.10
2019-01-22T13:21:51.031Z,0.10
2019-01-22T13:24:21.632Z,0.10
2019-01-22T13:26:51.964Z,0.20
2019-01-22T13:29:21.317Z,0.20
2019-01-22T13:31:50.988Z,0.20
2019-01-22T13:34:22.808Z,0.20
2019-01-22T13:36:55.768Z,0.20
2019-01-22T13:39:27.740Z,0.10
2019-01-22T13:41:57.401Z,0.00
2019-01-22T13:44:26.838Z,-0.20
2019-01-22T13:47:00.975Z,-0.20
2019-01-22T13:49:30.354Z,-0.20
2019-01-22T13:52:00.409Z,-0.30
2019-01-22T13:54:34.865Z,-0.30
2019-01-22T13:57:05.110Z,-0.40
2019-01-22T13:59:35.054Z,-0.40
2019-01-22T14:02:04.702Z,-0.30
2019-01-22T14:04:34.140Z,-0.20
2019-01-22T14:07:03.897Z,-0.10
2019-01-22T14:09:33.569Z,-0.20
2019-01-22T14:12:03.064Z,-0.40
2019-01-22T14:14:32.504Z,-0.50
2019-01-22T14:17:02.262Z,-0.60
2019-01-22T14:19:35.873Z,-0.90
2019-01-22T14:22:06.500Z,-0.80
2019-01-22T14:24:35.816Z,-0.70
2019-01-22T14:27:05.460Z,-0.70
2019-01-22T14:29:37.160Z,-0.80
2019-01-22T14:32:06.585Z,-1.00
2019-01-22T14:34:38.845Z,-1.00
2019-01-22T14:37:16.683Z,-1.00
2019-01-22T14:39:51.849Z,-0.90
2019-01-22T14:42:26.550Z,-1.00
2019-01-22T14:44:55.957Z,-1.00
2019-01-22T14:47:25.356Z,-0.80
2019-01-22T14:49:56.070Z,-0.80
2019-01-22T14:52:27.420Z,-0.80
2019-01-22T14:54:56.805Z,-0.90
2019-01-22T14:57:26.991Z,-1.10
2019-01-22T14:59:56.552Z,-1.10
2019-01-22T15:02:26.113Z,-1.20
2019-01-22T15:04:55.743Z,-1.20
2019-01-22T15:07:25.474Z,-1.10
2019-01-22T15:09:55.029Z,-1.10
2019-01-22T15:12:24.425Z,-1.10
2019-01-22T15:14:54.334Z,-1.00
2019-01-22T15:17:24.697Z,-1.00
2019-01-22T15:19:56.942Z,-1.00
2019-01-22T15:22:27.341Z,-1.10
2019-01-22T15:24:57.545Z,-1.10
2019-01-22T15:27:26.917Z,-1.00
2019-01-22T15:29:56.812Z,-1.00
2019-01-22T15:32:26.310Z,-1.20
2019-01-22T15:34:55.686Z,-1.20
2019-01-22T15:37:25.127Z,-1.20
2019-01-22T15:39:56.486Z,-1.20
2019-01-22T15:42:25.985Z,-1.30
2019-01-22T15:44:56.593Z,-1.30
2019-01-22T15:47:25.909Z,-1.30
2019-01-22T15:49:56.272Z,-1.40
2019-01-22T15:52:25.835Z,-1.30
2019-01-22T15:54:55.209Z,-1.40
2019-01-22T15:57:24.617Z,-1.40
2019-01-22T15:59:54.547Z,-1.50
2019-01-22T16:02:23.953Z,-1.50
2019-01-22T16:04:54.115Z,-1.40
2019-01-22T16:07:24.261Z,-1.50
2019-01-22T16:09:53.612Z,-1.50
2019-01-22T16:12:22.998Z,-1.60
2019-01-22T16:14:55.877Z,-1.60
2019-01-22T16:17:29.349Z,-1.60
2019-01-22T16:19:58.712Z,-1.70
2019-01-22T16:22:31.343Z,-1.70
2019-01-22T16:25:00.798Z,-1.80
2019-01-22T16:27:33.540Z,-1.90
2019-01-22T16:30:05.889Z,-1.90
2019-01-22T16:32:39.531Z,-2.00
2019-01-22T16:35:10.856Z,-2.00
2019-01-22T16:37:49.433Z,-2.10
2019-01-22T16:40:19.209Z,-2.20
2019-01-22T16:42:49.059Z,-2.20
2019-01-22T16:45:21.949Z,-2.20
2019-01-22T16:47:51.472Z,-2.30
2019-01-22T16:50:22.186Z,-2.30
2019-01-22T16:52:54.014Z,-2.30
2019-01-22T16:55:31.553Z,-2.30
2019-01-22T16:58:00.948Z,-2.30
2019-01-22T17:00:35.656Z,-2.40
2019-01-22T17:03:06.495Z,-2.40
2019-01-22T17:05:35.929Z,-2.50
2019-01-22T17:08:06.444Z,-2.40
2019-01-22T17:10:36.569Z,-2.40
2019-01-22T17:13:08.688Z,-2.30
2019-01-22T17:15:38.633Z,-2.30
2019-01-22T17:18:13.293Z,-2.40
2019-01-22T17:20:47.802Z,-2.50
2019-01-22T17:23:16.625Z,-2.40
2019-01-22T17:25:44.877Z,-2.40
2019-01-22T17:28:15.584Z,-2.50
2019-01-22T17:30:45.850Z,-2.60
2019-01-22T17:33:32.275Z,-2.50
2019-01-22T17:36:01.746Z,-2.60
2019-01-22T17:38:31.173Z,-2.60
2019-01-22T17:41:01.284Z,-2.60
2019-01-22T17:43:30.684Z,-2.70
2019-01-22T17:46:00.533Z,-2.70
2019-01-22T17:48:30.004Z,-2.70
2019-01-22T17:51:02.023Z,-2.60
2019-01-22T17:53:31.388Z,-2.60
2019-01-22T17:56:00.829Z,-2.70
2019-01-22T17:58:30.353Z,-2.60
2019-01-22T18:01:02.714Z,-2.70
2019-01-22T18:03:32.140Z,-2.70
2019-01-22T18:06:01.525Z,-2.80
2019-01-22T18:08:31.032Z,-2.80
2019-01-22T18:11:00.425Z,-2.90
2019-01-22T18:13:29.889Z,-2.90
2019-01-22T18:15:59.509Z,-2.90
2019-01-22T18:18:29.587Z,-2.90
2019-01-22T18:21:00.396Z,-2.90
2019-01-22T18:23:31.914Z,-2.90
2019-01-22T18:26:01.317Z,-3.00
2019-01-22T18:28:31.008Z,-3.00
2019-01-22T18:31:00.452Z,-2.90
2019-01-22T18:33:33.050Z,-2.90
2019-01-22T18:36:04.064Z,-3.00
2019-01-22T18:38:38.039Z,-2.90
2019-01-22T18:41:07.429Z,-2.80
2019-01-22T18:43:40.902Z,-2.80
2019-01-22T18:46:13.686Z,-2.90
2019-01-22T18:48:43.052Z,-2.80
2019-01-22T18:51:15.433Z,-2.90
2019-01-22T18:53:47.172Z,-2.90
2019-01-22T18:56:17.290Z,-2.90
2019-01-22T18:58:48.593Z,-2.90
2019-01-22T19:01:18.838Z,-2.80
2019-01-22T19:03:48.472Z,-2.90
2019-01-22T19:06:21.162Z,-3.00
2019-01-22T19:08:51.668Z,-3.00
2019-01-22T19:11:21.756Z,-3.00
2019-01-22T19:13:53.899Z,-3.00
2019-01-22T19:16:26.610Z,-3.00
2019-01-22T19:18:55.973Z,-3.10
2019-01-22T19:21:29.581Z,-3.10
2019-01-22T19:23:59.592Z,-3.10
2019-01-22T19:26:29.493Z,-3.20
2019-01-22T19:29:00.523Z,-3.30
2019-01-22T19:31:31.106Z,-3.40
2019-01-22T19:34:03.254Z,-3.50
2019-01-22T19:36:37.830Z,-3.50
2019-01-22T19:39:13.620Z,-3.50
2019-01-22T19:41:43.685Z,-3.50
2019-01-22T19:44:13.400Z,-3.60
2019-01-22T19:46:42.836Z,-3.50
2019-01-22T19:49:13.628Z,-3.50
2019-01-22T19:51:43.105Z,-3.60
2019-01-22T19:54:12.584Z,-3.60
2019-01-22T19:56:42.026Z,-3.60
2019-01-22T19:59:11.600Z,-3.70
2019-01-22T20:01:41.609Z,-3.80
2019-01-22T20:04:11.074Z,-3.60
2019-01-22T20:06:41.086Z,-3.50
2019-01-22T20:09:11.596Z,-3.40
2019-01-22T20:11:41.027Z,-3.50
2019-01-22T20:14:10.573Z,-3.40
2019-01-22T20:16:44.409Z,-3.40
2019-01-22T20:19:13.792Z,-3.40
2019-01-22T20:21:44.054Z,-3.40
2019-01-22T20:24:17.004Z,-3.30
2019-01-22T20:26:44.974Z,-3.30
2019-01-22T20:29:14.760Z,-3.30
2019-01-22T20:31:46.786Z,-3.40
2019-01-22T20:34:17.257Z,-3.50
2019-01-22T20:36:46.718Z,-3.40
2019-01-22T20:39:17.749Z,-3.40
2019-01-22T20:41:47.265Z,-3.50
2019-01-22T20:44:18.520Z,-3.50
2019-01-22T20:46:48.420Z,-3.50
2019-01-22T20:49:19.763Z,-3.40
2019-01-22T20:51:50.014Z,-3.30
2019-01-22T20:54:21.500Z,-3.40
2019-01-22T20:56:53.694Z,-3.40
2019-01-22T20:59:23.909Z,-3.40
2019-01-22T21:01:54.125Z,-3.50
2019-01-22T21:04:25.165Z,-3.50
2019-01-22T21:06:55.149Z,-3.40
2019-01-22T21:09:25.286Z,-3.40
2019-01-22T21:11:54.871Z,-3.30
2019-01-22T21:14:24.299Z,-3.30
2019-01-22T21:16:53.789Z,-3.30
2019-01-22T21:19:23.745Z,-3.40
2019-01-22T21:21:53.244Z,-3.40
2019-01-22T21:24:23.190Z,-3.40
2019-01-22T21:26:54.555Z,-3.40
2019-01-22T21:29:24.097Z,-3.40
2019-01-22T21:31:54.919Z,-3.30
2019-01-22T21:34:24.298Z,-3.30
2019-01-22T21:36:55.260Z,-3.40
2019-01-22T21:39:28.835Z,-3.30
2019-01-22T21:41:58.485Z,-3.30
2019-01-22T21:44:27.964Z,-3.30
2019-01-22T21:46:59.563Z,-3.30
2019-01-22T21:49:31.820Z,-3.20
2019-01-22T21:52:03.846Z,-3.30
2019-01-22T21:54:34.201Z,-3.20
2019-01-22T21:57:05.482Z,-3.30
2019-01-22T21:59:38.007Z,-3.30
2019-01-22T22:02:10.198Z,-3.20
2019-01-22T22:04:44.506Z,-3.20
2019-01-22T22:07:17.292Z,-3.30
2019-01-22T22:09:46.976Z,-3.40
2019-01-22T22:12:18.553Z,-3.40
2019-01-22T22:14:52.767Z,-3.40
2019-01-22T22:17:24.205Z,-3.40
2019-01-22T22:19:53.501Z,-3.50
2019-01-22T22:22:24.394Z,-3.50
2019-01-22T22:24:59.001Z,-3.50
2019-01-22T22:27:35.384Z,-3.50
2019-01-22T22:30:07.212Z,-3.50
2019-01-22T22:32:37.027Z,-3.60
2019-01-22T22:35:10.325Z,-3.50
2019-01-22T22:37:39.735Z,-3.50
2019-01-22T22:40:10.259Z,-3.50
2019-01-22T22:42:40.575Z,-3.50
2019-01-22T22:45:14.046Z,-3.60
2019-01-22T22:47:45.812Z,-3.70
2019-01-22T22:50:21.461Z,-3.70
2019-01-22T22:52:52.671Z,-3.60
2019-01-22T22:55:25.093Z,-3.60
2019-01-22T22:57:57.771Z,-3.70
2019-01-22T23:00:58.260Z,-3.80
2019-01-22T23:03:27.892Z,-3.80
2019-01-22T23:05:57.485Z,-3.80
2019-01-22T23:08:32.394Z,-3.80
2019-01-22T23:11:01.498Z,-3.80
2019-01-22T23:13:31.272Z,-3.70
2019-01-22T23:16:01.168Z,-3.70
2019-01-22T23:18:34.202Z,-3.70
2019-01-22T23:21:05.454Z,-3.60
2019-01-22T23:23:37.368Z,-3.60
2019-01-22T23:26:06.972Z,-3.60
2019-01-22T23:28:36.361Z,-3.60
2019-01-22T23:31:05.793Z,-3.60
2019-01-22T23:33:35.189Z,-3.60
2019-01-22T23:36:08.104Z,-3.60
2019-01-22T23:38:39.357Z,-3.70
2019-01-22T23:41:10.517Z,-3.70
2019-01-22T23:43:43.146Z,-3.70
2019-01-22T23:46:12.544Z,-3.70
2019-01-22T23:48:42.130Z,-3.80
2019-01-22T23:51:13.619Z,-3.80
2019-01-22T23:53:44.317Z,-3.80
2019-01-22T23:56:15.420Z,-3.80
2019-01-22T23:58:45.052Z,-3.80
